createdAt,value
2022-12-06T00:01:59.186Z,100977.69
2022-12-06T00:04:27.277Z,100977.59
2022-12-06T00:06:57.450Z,100971.66
2022-12-06T00:09:27.633Z,100973.69
2022-12-06T00:11:55.458Z,100971.25
2022-12-06T00:14:23.574Z,100973.59
2022-12-06T00:16:51.743Z,100965.38
2022-12-06T00:19:21.008Z,100976.38
2022-12-06T00:21:48.728Z,100971.56
2022-12-06T00:24:20.479Z,100965.13
2022-12-06T00:26:50.126Z,100959.25
2022-12-06T00:29:19.544Z,100963.50
2022-12-06T00:31:47.447Z,100958.78
2022-12-06T00:34:15.379Z,100961.81
2022-12-06T00:36:43.704Z,100964.84
2022-12-06T00:39:12.948Z,100955.38
2022-12-06T00:41:45.354Z,100956.59
2022-12-06T00:44:13.454Z,100961.22
2022-12-06T00:46:41.337Z,100966.81
2022-12-06T00:49:09.892Z,100958.94
2022-12-06T00:51:38.309Z,100961.22
2022-12-06T00:54:06.753Z,100962.56
2022-12-06T00:56:36.626Z,100964.84
2022-12-06T00:59:06.799Z,100978.72
2022-12-06T01:01:36.443Z,100972.09
2022-12-06T01:04:06.346Z,100969.16
2022-12-06T01:06:35.894Z,100970.78
2022-12-06T01:09:07.065Z,100975.78
2022-12-06T01:11:34.798Z,100979.47
2022-12-06T01:14:02.597Z,100969.22
2022-12-06T01:16:32.414Z,100968.88
2022-12-06T01:19:02.593Z,100967.75
2022-12-06T01:21:30.621Z,100972.22
2022-12-06T01:23:58.397Z,100969.22
2022-12-06T01:26:27.577Z,100964.28
2022-12-06T01:28:55.328Z,100972.72
2022-12-06T01:31:23.162Z,100975.75
2022-12-06T01:33:52.454Z,100974.91
2022-12-06T01:36:20.972Z,100970.31
2022-12-06T01:38:51.086Z,100971.28
2022-12-06T01:41:19.143Z,100975.44
2022-12-06T01:43:48.400Z,100975.63
2022-12-06T01:46:27.778Z,100971.50
2022-12-06T01:49:01.521Z,100974.00
2022-12-06T01:51:30.178Z,100977.63
2022-12-06T01:53:59.259Z,100974.13
2022-12-06T01:56:26.974Z,100970.69
2022-12-06T01:58:58.031Z,100968.03
2022-12-06T02:01:26.926Z,100959.75
2022-12-06T02:03:57.667Z,100966.06
2022-12-06T02:06:25.417Z,100965.88
2022-12-06T02:08:54.538Z,100955.84
2022-12-06T02:11:22.051Z,100963.00
2022-12-06T02:13:49.817Z,100963.47
2022-12-06T02:16:37.307Z,100962.16
2022-12-06T02:19:20.629Z,100958.69
2022-12-06T02:21:53.664Z,100959.81
2022-12-06T02:24:57.482Z,100958.53
2022-12-06T02:27:40.867Z,100950.78
2022-12-06T02:30:13.054Z,100953.44
2022-12-06T02:32:53.246Z,100948.66
2022-12-06T02:35:28.197Z,100950.00
2022-12-06T02:38:00.050Z,100946.16
2022-12-06T02:40:32.978Z,100941.38
2022-12-06T02:43:03.038Z,100944.72
2022-12-06T02:45:34.191Z,100941.09
2022-12-06T02:48:05.006Z,100940.25
2022-12-06T02:50:38.021Z,100932.44
2022-12-06T02:53:08.617Z,100940.75
2022-12-06T02:55:36.766Z,100937.47
2022-12-06T02:58:04.598Z,100942.94
2022-12-06T03:00:36.847Z,100929.84
2022-12-06T03:03:44.592Z,100936.50
2022-12-06T03:06:26.318Z,100928.56
2022-12-06T03:09:03.068Z,100939.16
2022-12-06T03:11:36.700Z,100937.34
2022-12-06T03:14:07.982Z,100943.31
2022-12-06T03:16:43.845Z,100953.41
2022-12-06T03:19:17.303Z,100946.66
2022-12-06T03:21:49.245Z,100947.16
2022-12-06T03:24:17.054Z,100956.75
2022-12-06T03:26:47.048Z,100969.69
2022-12-06T03:29:17.222Z,100969.34
2022-12-06T03:31:47.116Z,100969.22
2022-12-06T03:34:20.371Z,100968.56
2022-12-06T03:36:50.063Z,100970.06
2022-12-06T03:39:22.411Z,100970.88
2022-12-06T03:41:52.916Z,100965.09
2022-12-06T03:44:21.409Z,100972.75
2022-12-06T03:46:51.022Z,100966.16
2022-12-06T03:49:21.630Z,100965.13
2022-12-06T03:51:49.386Z,100967.47
2022-12-06T03:54:17.116Z,100977.09
2022-12-06T03:56:44.794Z,100970.13
2022-12-06T03:59:12.535Z,100974.44
2022-12-06T04:01:40.254Z,100964.53
2022-12-06T04:04:08.107Z,100969.34
2022-12-06T04:06:36.993Z,100960.56
2022-12-06T04:09:18.802Z,100968.00
2022-12-06T04:11:46.453Z,100962.06
2022-12-06T04:14:14.292Z,100962.06
2022-12-06T04:16:59.370Z,100965.88
2022-12-06T04:19:26.890Z,100963.88
2022-12-06T04:22:13.429Z,100961.91
2022-12-06T04:24:41.146Z,100965.56
2022-12-06T04:27:22.582Z,100964.41
2022-12-06T04:30:07.954Z,100966.56
2022-12-06T04:32:52.808Z,100963.75
2022-12-06T04:35:38.669Z,100960.25
2022-12-06T04:38:25.317Z,100962.94
2022-12-06T04:40:52.819Z,100961.94
2022-12-06T04:43:38.227Z,100958.28
2022-12-06T04:46:07.159Z,100960.94
2022-12-06T04:48:34.786Z,100954.28
2022-12-06T04:51:02.315Z,100952.81
2022-12-06T04:53:31.330Z,100945.03
2022-12-06T04:56:02.056Z,100960.94
2022-12-06T04:58:29.575Z,100956.63
2022-12-06T05:00:57.250Z,100946.66
2022-12-06T05:03:24.866Z,100949.66
2022-12-06T05:05:53.350Z,100948.69
2022-12-06T05:08:20.961Z,100945.84
2022-12-06T05:10:50.092Z,100947.84
2022-12-06T05:13:18.235Z,100944.72
2022-12-06T05:15:51.357Z,100949.66
2022-12-06T05:18:19.370Z,100941.56
2022-12-06T05:20:47.144Z,100941.38
2022-12-06T05:23:15.024Z,100942.03
2022-12-06T05:25:43.903Z,100940.41
2022-12-06T05:28:12.768Z,100937.91
2022-12-06T05:30:40.464Z,100942.72
2022-12-06T05:33:07.976Z,100932.78
2022-12-06T05:35:35.547Z,100938.09
2022-12-06T05:38:04.225Z,100939.72
2022-12-06T05:40:31.721Z,100938.75
2022-12-06T05:42:59.410Z,100931.44
2022-12-06T05:45:28.405Z,100932.78
2022-12-06T05:47:55.940Z,100932.44
2022-12-06T05:50:23.499Z,100924.31
2022-12-06T05:52:54.676Z,100919.53
2022-12-06T05:55:22.256Z,100912.88
2022-12-06T05:57:49.977Z,100911.88
2022-12-06T06:00:18.603Z,100914.88
2022-12-06T06:02:48.168Z,100919.84
2022-12-06T06:05:15.775Z,100920.31
2022-12-06T06:07:43.364Z,100914.53
2022-12-06T06:10:11.969Z,100918.84
2022-12-06T06:12:39.868Z,100914.53
2022-12-06T06:15:08.075Z,100912.53
2022-12-06T06:17:36.048Z,100915.03
2022-12-06T06:20:09.884Z,100908.91
2022-12-06T06:22:39.260Z,100906.25
2022-12-06T06:25:07.393Z,100904.91
2022-12-06T06:27:37.215Z,100906.91
2022-12-06T06:30:05.658Z,100911.91
2022-12-06T06:32:33.598Z,100913.72
2022-12-06T06:35:01.139Z,100910.22
2022-12-06T06:37:31.494Z,100917.19
2022-12-06T06:39:59.273Z,100907.25
2022-12-06T06:42:27.277Z,100906.22
2022-12-06T06:44:55.641Z,100911.53
2022-12-06T06:47:23.542Z,100910.22
2022-12-06T06:49:51.283Z,100906.22
2022-12-06T06:52:20.107Z,100906.22
2022-12-06T06:54:49.968Z,100909.91
2022-12-06T06:57:18.414Z,100912.56
2022-12-06T06:59:46.176Z,100906.59
2022-12-06T07:02:14.160Z,100911.53
2022-12-06T07:04:42.335Z,100918.84
2022-12-06T07:07:11.037Z,100913.53
2022-12-06T07:09:38.939Z,100913.72
2022-12-06T07:12:08.060Z,100914.56
2022-12-06T07:14:35.929Z,100909.25
2022-12-06T07:17:03.607Z,100911.53
2022-12-06T07:19:31.198Z,100920.50
2022-12-06T07:21:58.690Z,100906.59
2022-12-06T07:24:27.073Z,100905.75
2022-12-06T07:26:56.825Z,100912.03
2022-12-06T07:29:25.830Z,100910.22
2022-12-06T07:31:53.474Z,100908.41
2022-12-06T07:34:21.005Z,100910.88
2022-12-06T07:36:48.615Z,100910.41
2022-12-06T07:39:16.147Z,100908.22
2022-12-06T07:42:01.478Z,100908.88
2022-12-06T07:44:47.801Z,100907.91
2022-12-06T07:47:16.381Z,100906.59
2022-12-06T07:49:44.024Z,100904.91
2022-12-06T07:52:11.564Z,100900.28
2022-12-06T07:54:39.268Z,100899.63
2022-12-06T07:57:07.237Z,100902.09
2022-12-06T07:59:36.978Z,100902.91
2022-12-06T08:02:04.979Z,100902.59
2022-12-06T08:04:32.708Z,100896.63
2022-12-06T08:07:00.745Z,100905.25
2022-12-06T08:09:29.172Z,100905.25
2022-12-06T08:11:56.745Z,100924.47
2022-12-06T08:14:38.395Z,100926.78
2022-12-06T08:17:07.671Z,100930.78
2022-12-06T08:19:35.394Z,100930.94
2022-12-06T08:22:02.966Z,100929.44
2022-12-06T08:24:30.568Z,100938.44
2022-12-06T08:26:59.365Z,100933.78
2022-12-06T08:29:27.599Z,100929.13
2022-12-06T08:31:55.206Z,100929.44
2022-12-06T08:34:24.615Z,100930.09
2022-12-06T08:36:52.134Z,100934.44
2022-12-06T08:39:20.085Z,100932.63
2022-12-06T08:41:58.087Z,100930.63
2022-12-06T08:44:28.447Z,100935.75
2022-12-06T08:46:56.876Z,100936.25
2022-12-06T08:49:26.691Z,100929.47
2022-12-06T08:51:54.448Z,100930.78
2022-12-06T08:54:23.613Z,100935.59
2022-12-06T08:56:51.409Z,100937.41
2022-12-06T08:59:20.159Z,100932.91
2022-12-06T09:01:48.421Z,100940.41
2022-12-06T09:04:16.890Z,100941.38
2022-12-06T09:06:46.806Z,100941.06
2022-12-06T09:09:16.492Z,100944.69
2022-12-06T09:11:45.433Z,100945.84
2022-12-06T09:14:20.955Z,100944.38
2022-12-06T09:16:51.958Z,100947.84
2022-12-06T09:19:20.025Z,100948.38
2022-12-06T09:21:48.966Z,100949.53
2022-12-06T09:24:18.512Z,100954.00
2022-12-06T09:26:46.313Z,100954.16
2022-12-06T09:29:14.372Z,100942.34
2022-12-06T09:31:42.510Z,100949.00
2022-12-06T09:34:11.924Z,100949.00
2022-12-06T09:36:41.356Z,100953.31
2022-12-06T09:39:14.542Z,100950.66
2022-12-06T09:42:13.541Z,100951.47
2022-12-06T09:44:56.453Z,100953.97
2022-12-06T09:47:33.975Z,100954.66
2022-12-06T09:50:08.635Z,100950.00
2022-12-06T09:52:56.429Z,100946.00
2022-12-06T09:55:35.230Z,100954.66
2022-12-06T09:58:12.022Z,100952.00
2022-12-06T10:00:44.152Z,100943.53
2022-12-06T10:03:36.603Z,100952.13
2022-12-06T10:06:05.654Z,100948.31
2022-12-06T10:08:47.199Z,100947.16
2022-12-06T10:11:36.451Z,100948.00
2022-12-06T10:14:12.006Z,100949.84
2022-12-06T10:16:52.194Z,100945.34
2022-12-06T10:19:40.434Z,100936.06
2022-12-06T10:22:15.360Z,100942.72
2022-12-06T10:24:58.558Z,100937.75
2022-12-06T10:27:31.635Z,100940.41
2022-12-06T10:30:04.444Z,100935.41
2022-12-06T10:32:51.866Z,100938.91
2022-12-06T10:35:26.161Z,100926.63
2022-12-06T10:38:01.862Z,100921.81
2022-12-06T10:40:31.945Z,100926.28
2022-12-06T10:43:04.837Z,100916.31
2022-12-06T10:45:53.451Z,100918.66
2022-12-06T10:48:26.694Z,100915.63
2022-12-06T10:50:59.362Z,100903.78
2022-12-06T10:53:29.812Z,100903.03
2022-12-06T10:55:59.800Z,100903.69
2022-12-06T10:58:33.561Z,100897.94
2022-12-06T11:01:03.074Z,100908.97
2022-12-06T11:03:33.746Z,100899.91
2022-12-06T11:06:08.527Z,100898.50
2022-12-06T11:08:39.971Z,100897.44
2022-12-06T11:11:16.725Z,100897.44
2022-12-06T11:13:48.852Z,100891.50
2022-12-06T11:16:18.968Z,100894.78
2022-12-06T11:18:47.438Z,100899.34
2022-12-06T11:21:22.047Z,100886.28
2022-12-06T11:23:55.031Z,100897.88
2022-12-06T11:26:30.446Z,100890.28
2022-12-06T11:29:05.833Z,100898.25
2022-12-06T11:31:36.763Z,100886.31
2022-12-06T11:34:05.842Z,100887.31
2022-12-06T11:36:33.800Z,100878.97
2022-12-06T11:39:01.654Z,100874.84
2022-12-06T11:41:31.813Z,100879.41
2022-12-06T11:44:00.880Z,100877.03
2022-12-06T11:46:28.752Z,100877.19
2022-12-06T11:49:00.867Z,100872.41
2022-12-06T11:51:28.429Z,100875.25
2022-12-06T11:54:00.578Z,100868.09
2022-12-06T11:56:43.489Z,100872.06
2022-12-06T11:59:24.858Z,100865.19
2022-12-06T12:01:54.288Z,100874.50
2022-12-06T12:04:33.065Z,100880.44
2022-12-06T12:07:03.059Z,100889.41
2022-12-06T12:09:32.797Z,100892.41
2022-12-06T12:12:04.529Z,100878.81
2022-12-06T12:14:37.740Z,100883.66
2022-12-06T12:17:06.255Z,100885.97
2022-12-06T12:19:38.807Z,100884.38
2022-12-06T12:22:16.022Z,100888.19
2022-12-06T12:27:46.744Z,100889.13
2022-12-06T12:30:31.344Z,100895.75
2022-12-06T12:33:11.533Z,100896.19
2022-12-06T12:35:40.889Z,100890.34
2022-12-06T12:38:17.096Z,100884.06
2022-12-06T12:40:47.237Z,100891.03
2022-12-06T12:43:23.072Z,100887.41
2022-12-06T12:46:17.947Z,100893.34
2022-12-06T12:48:48.170Z,100887.63
2022-12-06T12:51:32.226Z,100885.00
2022-12-06T12:54:01.969Z,100893.34
2022-12-06T12:57:31.494Z,100898.75
2022-12-06T12:59:59.264Z,100897.53
2022-12-06T13:03:50.121Z,100905.00
2022-12-06T13:06:27.262Z,100904.31
2022-12-06T13:08:56.571Z,100894.53
2022-12-06T13:11:25.435Z,100891.81
2022-12-06T13:13:53.816Z,100890.19
2022-12-06T13:16:24.829Z,100893.50
2022-12-06T13:18:54.405Z,100881.38
2022-12-06T13:21:26.784Z,100888.06
2022-12-06T13:24:00.070Z,100885.88
2022-12-06T13:26:30.671Z,100893.91
2022-12-06T13:29:03.023Z,100890.88
2022-12-06T13:31:35.460Z,100884.41
2022-12-06T13:34:06.847Z,100891.16
2022-12-06T13:36:37.623Z,100892.44
2022-12-06T13:39:38.560Z,100891.56
2022-12-06T13:42:20.991Z,100882.59
2022-12-06T13:44:57.196Z,100883.81
2022-12-06T13:47:52.470Z,100885.63
2022-12-06T13:50:49.044Z,100888.13
2022-12-06T13:53:18.161Z,100884.44
2022-12-06T13:55:59.183Z,100881.09
2022-12-06T13:58:42.471Z,100881.66
2022-12-06T14:01:40.257Z,100875.44
2022-12-06T14:04:39.626Z,100870.84
2022-12-06T14:09:45.096Z,100867.50
2022-12-06T14:12:21.464Z,100862.88
2022-12-06T14:15:00.274Z,100865.25
2022-12-06T14:18:00.715Z,100867.06
2022-12-06T14:20:21.863Z,100869.88
2022-12-06T14:22:50.479Z,100867.25
2022-12-06T14:25:22.291Z,100864.25
2022-12-06T14:27:51.579Z,100856.97
2022-12-06T14:30:25.653Z,100852.97
2022-12-06T14:32:56.079Z,100857.97
2022-12-06T14:35:25.981Z,100858.78
2022-12-06T14:37:55.990Z,100846.03
2022-12-06T14:40:45.955Z,100849.34
2022-12-06T14:43:16.139Z,100844.38
2022-12-06T14:45:44.126Z,100844.38
2022-12-06T14:48:12.989Z,100843.38
2022-12-06T14:50:42.448Z,100846.72
2022-12-06T14:53:14.275Z,100842.75
2022-12-06T14:55:55.423Z,100839.63
2022-12-06T14:58:25.427Z,100841.97
2022-12-06T15:00:55.895Z,100839.13
2022-12-06T15:03:29.477Z,100834.34
2022-12-06T15:06:17.011Z,100837.81
2022-12-06T15:08:50.430Z,100835.81
2022-12-06T15:11:50.627Z,100841.28
2022-12-06T15:14:22.202Z,100838.47
2022-12-06T15:17:01.765Z,100841.13
2022-12-06T15:19:31.061Z,100834.34
2022-12-06T15:21:59.206Z,100824.25
2022-12-06T15:24:28.741Z,100835.53
2022-12-06T15:26:58.073Z,100828.28
2022-12-06T15:29:25.735Z,100837.25
2022-12-06T15:31:54.928Z,100832.25
2022-12-06T15:34:25.647Z,100828.44
2022-12-06T15:37:15.228Z,100832.94
2022-12-06T15:39:41.674Z,100833.09
2022-12-06T15:42:14.312Z,100826.31
2022-12-06T15:44:47.341Z,100838.09
2022-12-06T15:47:16.644Z,100830.97
2022-12-06T15:49:45.347Z,100836.47
2022-12-06T15:52:15.791Z,100842.59
2022-12-06T15:54:43.527Z,100832.66
2022-12-06T15:57:14.927Z,100827.50
2022-12-06T15:59:43.803Z,100835.00
2022-12-06T16:02:15.791Z,100832.97
2022-12-06T16:04:43.814Z,100824.19
2022-12-06T16:07:11.867Z,100822.38
2022-12-06T16:09:39.425Z,100821.72
2022-12-06T16:12:07.966Z,100824.69
2022-12-06T16:14:36.930Z,100824.72
2022-12-06T16:17:04.530Z,100828.69
2022-12-06T16:19:46.356Z,100832.66
2022-12-06T16:22:13.940Z,100829.84
2022-12-06T16:24:40.503Z,100823.38
2022-12-06T16:27:08.588Z,100822.22
2022-12-06T16:29:38.361Z,100819.75
2022-12-06T16:32:07.666Z,100823.06
2022-12-06T16:34:35.285Z,100828.69
2022-12-06T16:37:04.188Z,100822.34
2022-12-06T16:39:33.514Z,100820.41
2022-12-06T16:42:01.373Z,100810.59
2022-12-06T16:44:28.917Z,100813.75
2022-12-06T16:46:59.448Z,100811.94
2022-12-06T16:49:45.924Z,100808.78
2022-12-06T16:52:14.760Z,100806.13
2022-12-06T16:54:42.609Z,100803.47
2022-12-06T16:57:10.843Z,100802.16
2022-12-06T16:59:40.427Z,100798.69
2022-12-06T17:02:23.705Z,100792.53
2022-12-06T17:04:51.441Z,100790.91
2022-12-06T17:07:19.173Z,100791.88
2022-12-06T17:09:46.936Z,100787.91
2022-12-06T17:12:15.770Z,100784.25
2022-12-06T17:14:43.756Z,100784.94
2022-12-06T17:17:15.098Z,100787.09
2022-12-06T17:19:43.170Z,100780.47
2022-12-06T17:22:11.620Z,100778.97
2022-12-06T17:24:39.326Z,100782.94
2022-12-06T17:27:06.973Z,100780.94
2022-12-06T17:29:34.630Z,100776.66
2022-12-06T17:32:02.396Z,100779.63
2022-12-06T17:34:34.178Z,100770.69
2022-12-06T17:37:01.973Z,100771.34
2022-12-06T17:39:29.600Z,100774.50
2022-12-06T17:42:15.265Z,100769.03
2022-12-06T17:44:43.698Z,100771.84
2022-12-06T17:47:12.449Z,100775.16
2022-12-06T17:49:41.521Z,100765.38
2022-12-06T17:52:09.270Z,100770.34
2022-12-06T17:54:37.069Z,100766.72
2022-12-06T17:57:05.291Z,100761.91
2022-12-06T17:59:35.398Z,100764.56
2022-12-06T18:02:15.056Z,100767.88
2022-12-06T18:04:44.908Z,100759.41
2022-12-06T18:07:13.223Z,100759.75
2022-12-06T18:09:42.019Z,100766.38
2022-12-06T18:12:10.234Z,100768.38
2022-12-06T18:14:39.944Z,100761.09
2022-12-06T18:17:07.786Z,100756.09
2022-12-06T18:19:36.677Z,100751.59
2022-12-06T18:22:05.671Z,100755.91
2022-12-06T18:24:35.907Z,100748.94
2022-12-06T18:27:04.544Z,100751.78
2022-12-06T18:29:33.328Z,100753.78
2022-12-06T18:32:01.346Z,100749.78
2022-12-06T18:34:29.143Z,100752.25
2022-12-06T18:36:56.849Z,100751.75
2022-12-06T18:39:27.735Z,100758.56
2022-12-06T18:41:55.523Z,100750.22
2022-12-06T18:44:23.272Z,100744.44
2022-12-06T18:46:51.033Z,100752.56
2022-12-06T18:49:19.397Z,100748.56
2022-12-06T18:51:47.090Z,100750.72
2022-12-06T18:54:15.072Z,100747.34
2022-12-06T18:56:43.971Z,100730.44
2022-12-06T18:59:12.731Z,100737.75
2022-12-06T19:01:41.061Z,100735.09
2022-12-06T19:04:13.215Z,100723.13
2022-12-06T19:06:40.843Z,100718.84
2022-12-06T19:09:10.290Z,100723.13
2022-12-06T19:11:38.537Z,100718.78
2022-12-06T19:14:08.020Z,100722.81
2022-12-06T19:16:39.567Z,100716.66
2022-12-06T19:19:15.438Z,100717.50
2022-12-06T19:21:44.270Z,100719.16
2022-12-06T19:24:12.711Z,100722.81
2022-12-06T19:26:40.473Z,100720.78
2022-12-06T19:29:09.556Z,100716.13
2022-12-06T19:31:37.446Z,100713.16
2022-12-06T19:34:05.177Z,100721.59
2022-12-06T19:36:34.116Z,100714.09
2022-12-06T19:39:04.570Z,100719.06
2022-12-06T19:41:56.381Z,100717.75
2022-12-06T19:44:24.462Z,100707.63
2022-12-06T19:46:52.384Z,100709.28
2022-12-06T19:49:21.754Z,100707.28
2022-12-06T19:51:50.401Z,100708.13
2022-12-06T19:54:20.708Z,100712.06
2022-12-06T19:56:50.437Z,100724.16
2022-12-06T19:59:19.475Z,100707.44
2022-12-06T20:01:50.253Z,100709.72
2022-12-06T20:04:20.574Z,100709.56
2022-12-06T20:06:48.350Z,100705.09
2022-12-06T20:09:16.393Z,100706.25
2022-12-06T20:12:02.923Z,100700.22
2022-12-06T20:14:34.354Z,100700.41
2022-12-06T20:17:05.793Z,100704.56
2022-12-06T20:19:33.831Z,100704.03
2022-12-06T20:22:01.948Z,100701.72
2022-12-06T20:24:29.807Z,100703.53
2022-12-06T20:26:57.920Z,100699.50
2022-12-06T20:29:26.938Z,100687.75
2022-12-06T20:31:57.863Z,100685.63
2022-12-06T20:34:28.790Z,100689.59
2022-12-06T20:36:56.487Z,100692.09
2022-12-06T20:39:25.234Z,100689.91
2022-12-06T20:41:53.707Z,100692.91
2022-12-06T20:44:21.307Z,100689.75
2022-12-06T20:46:49.993Z,100684.78
2022-12-06T20:49:17.743Z,100689.75
2022-12-06T20:51:52.711Z,100690.41
2022-12-06T20:54:21.001Z,100682.88
2022-12-06T20:56:52.186Z,100689.53
2022-12-06T20:59:20.195Z,100684.22
2022-12-06T21:01:49.187Z,100674.22
2022-12-06T21:04:16.994Z,100675.72
2022-12-06T21:06:44.611Z,100682.69
2022-12-06T21:09:13.780Z,100678.84
2022-12-06T21:11:41.334Z,100679.88
2022-12-06T21:14:11.543Z,100677.75
2022-12-06T21:16:40.637Z,100674.28
2022-12-06T21:19:10.131Z,100675.13
2022-12-06T21:21:40.616Z,100669.81
2022-12-06T21:24:11.372Z,100671.47
2022-12-06T21:26:40.350Z,100664.69
2022-12-06T21:29:08.450Z,100665.31
2022-12-06T21:31:38.896Z,100666.50
2022-12-06T21:34:06.885Z,100667.34
2022-12-06T21:36:34.772Z,100664.50
2022-12-06T21:39:02.295Z,100671.09
2022-12-06T21:41:30.725Z,100665.97
2022-12-06T21:44:00.400Z,100669.91
2022-12-06T21:46:29.299Z,100671.09
2022-12-06T21:48:58.756Z,100663.78
2022-12-06T21:51:27.975Z,100673.25
2022-12-06T21:53:57.053Z,100667.75
2022-12-06T21:56:26.927Z,100673.69
2022-12-06T21:58:54.858Z,100666.75
2022-12-06T22:01:25.657Z,100669.50
2022-12-06T22:03:54.743Z,100666.38
2022-12-06T22:06:23.030Z,100671.34
2022-12-06T22:08:57.259Z,100672.66
2022-12-06T22:11:25.205Z,100678.97
2022-12-06T22:13:52.724Z,100678.59
2022-12-06T22:16:20.352Z,100673.09
2022-12-06T22:18:51.588Z,100680.91
2022-12-06T22:21:21.250Z,100683.38
2022-12-06T22:23:49.146Z,100674.75
2022-12-06T22:26:18.027Z,100677.22
2022-12-06T22:28:45.703Z,100677.22
2022-12-06T22:31:15.367Z,100678.91
2022-12-06T22:33:43.246Z,100682.38
2022-12-06T22:36:13.752Z,100679.38
2022-12-06T22:38:41.453Z,100684.84
2022-12-06T22:41:09.371Z,100675.69
2022-12-06T22:43:37.762Z,100669.94
2022-12-06T22:46:06.590Z,100676.53
2022-12-06T22:48:34.121Z,100668.75
2022-12-06T22:51:09.947Z,100666.44
2022-12-06T22:53:39.042Z,100663.44
2022-12-06T22:56:07.072Z,100668.28
2022-12-06T22:58:34.912Z,100669.25
2022-12-06T23:01:11.873Z,100668.28
2022-12-06T23:03:45.052Z,100658.81
2022-12-06T23:06:12.989Z,100657.34
2022-12-06T23:08:42.992Z,100656.38
2022-12-06T23:11:12.544Z,100654.69
2022-12-06T23:13:40.620Z,100642.75
2022-12-06T23:16:11.361Z,100648.06
2022-12-06T23:18:39.572Z,100653.75
2022-12-06T23:21:08.801Z,100657.75
2022-12-06T23:23:36.972Z,100665.09
2022-12-06T23:26:07.583Z,100660.72
2022-12-06T23:28:35.158Z,100658.88
2022-12-06T23:31:04.399Z,100669.69
2022-12-06T23:33:32.018Z,100665.84
2022-12-06T23:36:08.316Z,100669.69
2022-12-06T23:38:36.072Z,100661.06
2022-12-06T23:41:06.510Z,100661.88
2022-12-06T23:43:34.406Z,100657.06
2022-12-06T23:46:07.538Z,100652.94
2022-12-06T23:48:37.195Z,100654.56
2022-12-06T23:51:06.084Z,100663.38
2022-12-06T23:53:35.260Z,100655.75
2022-12-06T23:56:07.260Z,100655.59
2022-12-06T23:58:35.073Z,100648.25
